sensor_id;sensor_type;location;lat;lon;timestamp;P1;durP1;ratioP1;P2;durP2;ratioP2
13204;SDS011;6667;52.634;9.226;2024-03-02T00:01:14;12.23;;;8.57;;
13204;SDS011;6667;52.634;9.226;2024-03-02T00:03:43;12.23;;;8.43;;
13204;SDS011;6667;52.634;9.226;2024-03-02T00:06:09;12.40;;;8.43;;
13204;SDS011;6667;52.634;9.226;2024-03-02T00:08:36;11.33;;;8.03;;
13204;SDS011;6667;52.634;9.226;2024-03-02T00:11:03;14.17;;;8.90;;
13204;SDS011;6667;52.634;9.226;2024-03-02T00:13:30;11.50;;;8.20;;
13204;SDS011;6667;52.634;9.226;2024-03-02T00:15:57;12.97;;;8.40;;
13204;SDS011;6667;52.634;9.226;2024-03-02T00:18:24;14.00;;;9.13;;
13204;SDS011;6667;52.634;9.226;2024-03-02T00:20:54;13.13;;;8.50;;
13204;SDS011;6667;52.634;9.226;2024-03-02T00:23:22;13.10;;;8.70;;
13204;SDS011;6667;52.634;9.226;2024-03-02T00:25:50;14.27;;;8.57;;
13204;SDS011;6667;52.634;9.226;2024-03-02T00:28:19;15.23;;;9.50;;
13204;SDS011;6667;52.634;9.226;2024-03-02T00:30:57;14.33;;;8.77;;
13204;SDS011;6667;52.634;9.226;2024-03-02T00:33:26;15.50;;;8.97;;
13204;SDS011;6667;52.634;9.226;2024-03-02T00:35:55;12.87;;;8.87;;
13204;SDS011;6667;52.634;9.226;2024-03-02T00:38:22;14.40;;;8.67;;
13204;SDS011;6667;52.634;9.226;2024-03-02T00:40:49;14.40;;;8.63;;
13204;SDS011;6667;52.634;9.226;2024-03-02T00:46:09;11.13;;;8.13;;
13204;SDS011;6667;52.634;9.226;2024-03-02T00:48:41;13.10;;;8.67;;
13204;SDS011;6667;52.634;9.226;2024-03-02T00:51:20;15.60;;;8.53;;
13204;SDS011;6667;52.634;9.226;2024-03-02T00:53:48;13.80;;;8.97;;
13204;SDS011;6667;52.634;9.226;2024-03-02T00:56:15;13.70;;;9.27;;
13204;SDS011;6667;52.634;9.226;2024-03-02T00:58:42;13.43;;;8.47;;
13204;SDS011;6667;52.634;9.226;2024-03-02T01:01:09;14.33;;;9.57;;
13204;SDS011;6667;52.634;9.226;2024-03-02T01:03:35;13.90;;;9.40;;
13204;SDS011;6667;52.634;9.226;2024-03-02T01:06:03;14.60;;;9.70;;
13204;SDS011;6667;52.634;9.226;2024-03-02T01:08:33;14.83;;;9.57;;
13204;SDS011;6667;52.634;9.226;2024-03-02T01:11:00;13.13;;;8.87;;
13204;SDS011;6667;52.634;9.226;2024-03-02T01:13:27;16.13;;;9.77;;
13204;SDS011;6667;52.634;9.226;2024-03-02T01:15:53;12.60;;;8.30;;
13204;SDS011;6667;52.634;9.226;2024-03-02T01:18:20;15.17;;;9.37;;
13204;SDS011;6667;52.634;9.226;2024-03-02T01:20:47;13.87;;;9.43;;
13204;SDS011;6667;52.634;9.226;2024-03-02T01:23:16;15.77;;;9.70;;
13204;SDS011;6667;52.634;9.226;2024-03-02T01:25:44;14.13;;;8.60;;
13204;SDS011;6667;52.634;9.226;2024-03-02T01:28:11;13.57;;;8.77;;
13204;SDS011;6667;52.634;9.226;2024-03-02T01:30:38;14.33;;;9.20;;
13204;SDS011;6667;52.634;9.226;2024-03-02T01:33:04;14.60;;;9.43;;
13204;SDS011;6667;52.634;9.226;2024-03-02T01:35:31;12.50;;;8.27;;
13204;SDS011;6667;52.634;9.226;2024-03-02T01:37:58;15.13;;;9.33;;
13204;SDS011;6667;52.634;9.226;2024-03-02T01:40:24;15.53;;;10.10;;
13204;SDS011;6667;52.634;9.226;2024-03-02T01:42:53;15.87;;;10.30;;
13204;SDS011;6667;52.634;9.226;2024-03-02T01:45:20;12.50;;;8.83;;
13204;SDS011;6667;52.634;9.226;2024-03-02T01:47:47;12.93;;;9.30;;
13204;SDS011;6667;52.634;9.226;2024-03-02T01:50:14;12.80;;;8.97;;
13204;SDS011;6667;52.634;9.226;2024-03-02T01:52:42;12.30;;;8.77;;
13204;SDS011;6667;52.634;9.226;2024-03-02T01:55:09;13.37;;;9.10;;
13204;SDS011;6667;52.634;9.226;2024-03-02T01:57:35;15.00;;;9.40;;
13204;SDS011;6667;52.634;9.226;2024-03-02T02:00:04;16.33;;;9.87;;
13204;SDS011;6667;52.634;9.226;2024-03-02T02:02:34;13.10;;;9.37;;
13204;SDS011;6667;52.634;9.226;2024-03-02T02:05:01;14.00;;;9.33;;
13204;SDS011;6667;52.634;9.226;2024-03-02T02:07:28;13.77;;;9.20;;
13204;SDS011;6667;52.634;9.226;2024-03-02T02:09:55;13.93;;;8.93;;
13204;SDS011;6667;52.634;9.226;2024-03-02T02:12:22;16.17;;;9.27;;
13204;SDS011;6667;52.634;9.226;2024-03-02T02:14:48;13.20;;;9.00;;
13204;SDS011;6667;52.634;9.226;2024-03-02T02:17:17;14.33;;;9.13;;
13204;SDS011;6667;52.634;9.226;2024-03-02T02:19:43;15.17;;;10.03;;
13204;SDS011;6667;52.634;9.226;2024-03-02T02:22:11;15.10;;;9.23;;
13204;SDS011;6667;52.634;9.226;2024-03-02T02:24:39;14.03;;;9.67;;
13204;SDS011;6667;52.634;9.226;2024-03-02T02:27:06;14.17;;;9.67;;
13204;SDS011;6667;52.634;9.226;2024-03-02T02:29:33;11.83;;;7.87;;
13204;SDS011;6667;52.634;9.226;2024-03-02T02:32:00;11.10;;;8.00;;
13204;SDS011;6667;52.634;9.226;2024-03-02T02:34:27;14.40;;;9.13;;
13204;SDS011;6667;52.634;9.226;2024-03-02T02:36:54;12.70;;;8.70;;
13204;SDS011;6667;52.634;9.226;2024-03-02T02:39:22;13.00;;;8.43;;
13204;SDS011;6667;52.634;9.226;2024-03-02T02:41:48;15.00;;;8.97;;
13204;SDS011;6667;52.634;9.226;2024-03-02T02:44:14;11.20;;;7.73;;
13204;SDS011;6667;52.634;9.226;2024-03-02T02:46:41;13.53;;;8.27;;
13204;SDS011;6667;52.634;9.226;2024-03-02T02:49:07;13.60;;;8.37;;
13204;SDS011;6667;52.634;9.226;2024-03-02T02:51:34;10.93;;;7.70;;
13204;SDS011;6667;52.634;9.226;2024-03-02T02:54:01;10.23;;;7.17;;
13204;SDS011;6667;52.634;9.226;2024-03-02T02:56:29;12.27;;;8.53;;
13204;SDS011;6667;52.634;9.226;2024-03-02T02:58:56;12.40;;;7.80;;
13204;SDS011;6667;52.634;9.226;2024-03-02T03:01:22;12.13;;;7.57;;
13204;SDS011;6667;52.634;9.226;2024-03-02T03:03:49;12.83;;;8.70;;
13204;SDS011;6667;52.634;9.226;2024-03-02T03:06:15;12.53;;;7.93;;
13204;SDS011;6667;52.634;9.226;2024-03-02T03:08:42;11.97;;;7.67;;
13204;SDS011;6667;52.634;9.226;2024-03-02T03:11:09;11.13;;;7.73;;
13204;SDS011;6667;52.634;9.226;2024-03-02T03:13:36;11.00;;;6.97;;
13204;SDS011;6667;52.634;9.226;2024-03-02T03:16:03;12.00;;;8.23;;
13204;SDS011;6667;52.634;9.226;2024-03-02T03:18:30;12.60;;;8.20;;
13204;SDS011;6667;52.634;9.226;2024-03-02T03:20:57;11.33;;;7.47;;
13204;SDS011;6667;52.634;9.226;2024-03-02T03:23:23;12.03;;;7.87;;
13204;SDS011;6667;52.634;9.226;2024-03-02T03:25:50;10.87;;;7.13;;
13204;SDS011;6667;52.634;9.226;2024-03-02T03:28:17;11.70;;;7.50;;
13204;SDS011;6667;52.634;9.226;2024-03-02T03:30:45;10.83;;;7.40;;
13204;SDS011;6667;52.634;9.226;2024-03-02T03:33:12;10.10;;;7.00;;
13204;SDS011;6667;52.634;9.226;2024-03-02T03:35:39;12.30;;;8.00;;
13204;SDS011;6667;52.634;9.226;2024-03-02T03:38:05;11.40;;;7.50;;
13204;SDS011;6667;52.634;9.226;2024-03-02T03:40:32;13.83;;;7.53;;
13204;SDS011;6667;52.634;9.226;2024-03-02T03:42:58;13.20;;;7.87;;
13204;SDS011;6667;52.634;9.226;2024-03-02T03:45:25;11.13;;;7.80;;
13204;SDS011;6667;52.634;9.226;2024-03-02T03:47:53;10.97;;;7.33;;
13204;SDS011;6667;52.634;9.226;2024-03-02T03:50:20;11.83;;;8.00;;
13204;SDS011;6667;52.634;9.226;2024-03-02T03:52:47;12.93;;;7.60;;
13204;SDS011;6667;52.634;9.226;2024-03-02T03:55:14;12.53;;;8.40;;
13204;SDS011;6667;52.634;9.226;2024-03-02T03:57:40;11.20;;;8.50;;
13204;SDS011;6667;52.634;9.226;2024-03-02T04:00:07;11.20;;;7.83;;
13204;SDS011;6667;52.634;9.226;2024-03-02T04:02:36;12.13;;;7.40;;
13204;SDS011;6667;52.634;9.226;2024-03-02T04:05:04;11.00;;;7.43;;
13204;SDS011;6667;52.634;9.226;2024-03-02T04:07:34;13.60;;;7.73;;
13204;SDS011;6667;52.634;9.226;2024-03-02T04:10:05;12.80;;;8.10;;
13204;SDS011;6667;52.634;9.226;2024-03-02T04:12:33;15.43;;;9.23;;
13204;SDS011;6667;52.634;9.226;2024-03-02T04:15:00;13.87;;;8.33;;
13204;SDS011;6667;52.634;9.226;2024-03-02T04:17:28;13.83;;;8.63;;
13204;SDS011;6667;52.634;9.226;2024-03-02T04:19:56;17.50;;;8.70;;
13204;SDS011;6667;52.634;9.226;2024-03-02T04:22:24;13.43;;;9.40;;
13204;SDS011;6667;52.634;9.226;2024-03-02T04:24:51;14.57;;;8.50;;
13204;SDS011;6667;52.634;9.226;2024-03-02T04:27:18;17.80;;;9.07;;
13204;SDS011;6667;52.634;9.226;2024-03-02T04:29:44;14.50;;;9.63;;
13204;SDS011;6667;52.634;9.226;2024-03-02T04:32:11;14.93;;;9.40;;
13204;SDS011;6667;52.634;9.226;2024-03-02T04:34:37;16.20;;;10.17;;
13204;SDS011;6667;52.634;9.226;2024-03-02T04:37:04;16.03;;;9.90;;
13204;SDS011;6667;52.634;9.226;2024-03-02T04:39:32;13.70;;;9.60;;
13204;SDS011;6667;52.634;9.226;2024-03-02T04:42:00;15.67;;;10.33;;
13204;SDS011;6667;52.634;9.226;2024-03-02T04:44:27;17.33;;;10.90;;
13204;SDS011;6667;52.634;9.226;2024-03-02T04:46:54;19.87;;;11.13;;
13204;SDS011;6667;52.634;9.226;2024-03-02T04:49:21;18.40;;;11.57;;
13204;SDS011;6667;52.634;9.226;2024-03-02T04:51:47;18.63;;;10.53;;
13204;SDS011;6667;52.634;9.226;2024-03-02T04:54:14;18.17;;;11.60;;
13204;SDS011;6667;52.634;9.226;2024-03-02T04:56:42;17.47;;;10.70;;
13204;SDS011;6667;52.634;9.226;2024-03-02T04:59:14;16.53;;;11.03;;
13204;SDS011;6667;52.634;9.226;2024-03-02T05:01:41;18.70;;;11.40;;
13204;SDS011;6667;52.634;9.226;2024-03-02T05:04:08;19.50;;;11.47;;
13204;SDS011;6667;52.634;9.226;2024-03-02T05:06:36;18.50;;;11.30;;
13204;SDS011;6667;52.634;9.226;2024-03-02T05:09:03;19.80;;;11.83;;
13204;SDS011;6667;52.634;9.226;2024-03-02T05:11:30;18.47;;;12.40;;
13204;SDS011;6667;52.634;9.226;2024-03-02T05:14:11;17.10;;;10.63;;
13204;SDS011;6667;52.634;9.226;2024-03-02T05:16:38;17.47;;;10.77;;
13204;SDS011;6667;52.634;9.226;2024-03-02T05:19:05;18.90;;;11.83;;
13204;SDS011;6667;52.634;9.226;2024-03-02T05:21:32;18.93;;;11.20;;
13204;SDS011;6667;52.634;9.226;2024-03-02T05:23:58;18.73;;;11.77;;
13204;SDS011;6667;52.634;9.226;2024-03-02T05:26:25;18.87;;;11.30;;
13204;SDS011;6667;52.634;9.226;2024-03-02T05:28:51;21.07;;;11.67;;
13204;SDS011;6667;52.634;9.226;2024-03-02T05:31:19;18.43;;;11.00;;
13204;SDS011;6667;52.634;9.226;2024-03-02T05:33:46;19.93;;;11.30;;
13204;SDS011;6667;52.634;9.226;2024-03-02T05:36:13;21.70;;;11.60;;
13204;SDS011;6667;52.634;9.226;2024-03-02T05:38:39;19.73;;;11.63;;
13204;SDS011;6667;52.634;9.226;2024-03-02T05:41:06;15.80;;;11.00;;
13204;SDS011;6667;52.634;9.226;2024-03-02T05:43:32;18.70;;;11.60;;
13204;SDS011;6667;52.634;9.226;2024-03-02T05:45:59;21.63;;;11.73;;
13204;SDS011;6667;52.634;9.226;2024-03-02T05:48:27;17.80;;;12.10;;
13204;SDS011;6667;52.634;9.226;2024-03-02T05:50:54;17.57;;;11.60;;
13204;SDS011;6667;52.634;9.226;2024-03-02T05:53:20;19.27;;;11.63;;
13204;SDS011;6667;52.634;9.226;2024-03-02T05:55:47;17.53;;;11.00;;
13204;SDS011;6667;52.634;9.226;2024-03-02T05:58:18;18.67;;;12.07;;
13204;SDS011;6667;52.634;9.226;2024-03-02T06:00:56;18.20;;;11.40;;
13204;SDS011;6667;52.634;9.226;2024-03-02T06:03:22;18.50;;;12.17;;
13204;SDS011;6667;52.634;9.226;2024-03-02T06:05:50;19.00;;;11.27;;
13204;SDS011;6667;52.634;9.226;2024-03-02T06:08:17;19.20;;;12.33;;
13204;SDS011;6667;52.634;9.226;2024-03-02T06:10:44;20.37;;;11.50;;
13204;SDS011;6667;52.634;9.226;2024-03-02T06:13:11;18.83;;;11.10;;
13204;SDS011;6667;52.634;9.226;2024-03-02T06:15:37;20.03;;;10.67;;
13204;SDS011;6667;52.634;9.226;2024-03-02T06:18:04;19.80;;;11.57;;
13204;SDS011;6667;52.634;9.226;2024-03-02T06:20:31;19.67;;;12.43;;
13204;SDS011;6667;52.634;9.226;2024-03-02T06:22:59;18.63;;;11.90;;
13204;SDS011;6667;52.634;9.226;2024-03-02T06:25:26;21.87;;;12.40;;
13204;SDS011;6667;52.634;9.226;2024-03-02T06:27:53;22.23;;;12.13;;
13204;SDS011;6667;52.634;9.226;2024-03-02T06:30:18;21.10;;;11.90;;
13204;SDS011;6667;52.634;9.226;2024-03-02T06:32:45;21.50;;;11.53;;
13204;SDS011;6667;52.634;9.226;2024-03-02T06:35:12;22.70;;;12.30;;
13204;SDS011;6667;52.634;9.226;2024-03-02T06:37:38;17.90;;;12.77;;
13204;SDS011;6667;52.634;9.226;2024-03-02T06:40:07;25.57;;;12.03;;
13204;SDS011;6667;52.634;9.226;2024-03-02T06:42:34;20.93;;;11.87;;
13204;SDS011;6667;52.634;9.226;2024-03-02T06:45:01;17.00;;;11.33;;
13204;SDS011;6667;52.634;9.226;2024-03-02T06:47:29;22.37;;;12.23;;
13204;SDS011;6667;52.634;9.226;2024-03-02T06:49:55;21.90;;;11.83;;
13204;SDS011;6667;52.634;9.226;2024-03-02T06:52:23;22.20;;;12.83;;
13204;SDS011;6667;52.634;9.226;2024-03-02T06:54:50;23.57;;;13.30;;
13204;SDS011;6667;52.634;9.226;2024-03-02T06:57:18;21.60;;;13.03;;
13204;SDS011;6667;52.634;9.226;2024-03-02T06:59:45;22.13;;;13.63;;
13204;SDS011;6667;52.634;9.226;2024-03-02T07:02:12;24.07;;;13.70;;
13204;SDS011;6667;52.634;9.226;2024-03-02T07:04:39;22.23;;;13.50;;
13204;SDS011;6667;52.634;9.226;2024-03-02T07:07:05;22.37;;;12.80;;
13204;SDS011;6667;52.634;9.226;2024-03-02T07:09:32;22.73;;;13.27;;
13204;SDS011;6667;52.634;9.226;2024-03-02T07:11:58;23.37;;;13.60;;
13204;SDS011;6667;52.634;9.226;2024-03-02T07:14:26;21.30;;;12.33;;
13204;SDS011;6667;52.634;9.226;2024-03-02T07:17:20;23.73;;;14.10;;
13204;SDS011;6667;52.634;9.226;2024-03-02T07:19:47;23.07;;;13.90;;
13204;SDS011;6667;52.634;9.226;2024-03-02T07:22:13;24.40;;;13.57;;
13204;SDS011;6667;52.634;9.226;2024-03-02T07:24:40;26.17;;;14.73;;
13204;SDS011;6667;52.634;9.226;2024-03-02T07:27:08;24.53;;;14.60;;
13204;SDS011;6667;52.634;9.226;2024-03-02T07:29:36;23.20;;;14.57;;
13204;SDS011;6667;52.634;9.226;2024-03-02T07:32:02;21.93;;;13.77;;
13204;SDS011;6667;52.634;9.226;2024-03-02T07:34:29;23.33;;;13.30;;
13204;SDS011;6667;52.634;9.226;2024-03-02T07:36:56;22.03;;;14.17;;
13204;SDS011;6667;52.634;9.226;2024-03-02T07:39:23;22.93;;;13.33;;
13204;SDS011;6667;52.634;9.226;2024-03-02T07:41:50;23.73;;;14.23;;
13204;SDS011;6667;52.634;9.226;2024-03-02T07:44:17;25.50;;;14.67;;
13204;SDS011;6667;52.634;9.226;2024-03-02T07:46:45;22.90;;;13.70;;
13204;SDS011;6667;52.634;9.226;2024-03-02T07:49:14;23.17;;;13.97;;
13204;SDS011;6667;52.634;9.226;2024-03-02T07:51:41;28.00;;;15.13;;
13204;SDS011;6667;52.634;9.226;2024-03-02T07:54:08;24.97;;;13.77;;
13204;SDS011;6667;52.634;9.226;2024-03-02T07:56:34;21.00;;;13.03;;
13204;SDS011;6667;52.634;9.226;2024-03-02T07:59:01;22.43;;;13.80;;
13204;SDS011;6667;52.634;9.226;2024-03-02T08:01:28;23.13;;;13.80;;
13204;SDS011;6667;52.634;9.226;2024-03-02T08:03:57;21.90;;;12.83;;
13204;SDS011;6667;52.634;9.226;2024-03-02T08:06:24;21.93;;;13.73;;
13204;SDS011;6667;52.634;9.226;2024-03-02T08:08:52;18.73;;;11.87;;
13204;SDS011;6667;52.634;9.226;2024-03-02T08:11:20;24.57;;;11.53;;
13204;SDS011;6667;52.634;9.226;2024-03-02T08:13:46;20.20;;;12.67;;
13204;SDS011;6667;52.634;9.226;2024-03-02T08:16:13;18.40;;;11.80;;
13204;SDS011;6667;52.634;9.226;2024-03-02T08:18:39;19.47;;;11.63;;
13204;SDS011;6667;52.634;9.226;2024-03-02T08:21:07;23.07;;;12.37;;
13204;SDS011;6667;52.634;9.226;2024-03-02T08:23:34;18.20;;;10.53;;
13204;SDS011;6667;52.634;9.226;2024-03-02T08:26:01;19.53;;;10.60;;
13204;SDS011;6667;52.634;9.226;2024-03-02T08:28:28;17.77;;;11.70;;
13204;SDS011;6667;52.634;9.226;2024-03-02T08:30:54;16.10;;;9.87;;
13204;SDS011;6667;52.634;9.226;2024-03-02T08:33:21;18.60;;;10.37;;
13204;SDS011;6667;52.634;9.226;2024-03-02T08:35:48;15.63;;;11.07;;
13204;SDS011;6667;52.634;9.226;2024-03-02T08:38:16;17.00;;;10.17;;
13204;SDS011;6667;52.634;9.226;2024-03-02T08:40:43;18.13;;;10.50;;
13204;SDS011;6667;52.634;9.226;2024-03-02T08:43:10;13.97;;;10.10;;
13204;SDS011;6667;52.634;9.226;2024-03-02T08:45:37;17.23;;;9.93;;
13204;SDS011;6667;52.634;9.226;2024-03-02T08:48:05;13.67;;;8.90;;
13204;SDS011;6667;52.634;9.226;2024-03-02T08:50:32;12.80;;;9.27;;
13204;SDS011;6667;52.634;9.226;2024-03-02T08:52:59;15.90;;;9.77;;
13204;SDS011;6667;52.634;9.226;2024-03-02T08:55:27;15.47;;;9.40;;
13204;SDS011;6667;52.634;9.226;2024-03-02T08:57:53;18.20;;;10.23;;
13204;SDS011;6667;52.634;9.226;2024-03-02T09:00:21;14.97;;;8.93;;
13204;SDS011;6667;52.634;9.226;2024-03-02T09:02:48;13.63;;;9.40;;
13204;SDS011;6667;52.634;9.226;2024-03-02T09:05:15;16.83;;;9.37;;
13204;SDS011;6667;52.634;9.226;2024-03-02T09:07:41;14.33;;;9.47;;
13204;SDS011;6667;52.634;9.226;2024-03-02T09:10:08;17.23;;;9.50;;
13204;SDS011;6667;52.634;9.226;2024-03-02T09:12:37;14.57;;;9.17;;
13204;SDS011;6667;52.634;9.226;2024-03-02T09:15:04;13.73;;;9.60;;
13204;SDS011;6667;52.634;9.226;2024-03-02T09:17:32;13.93;;;8.80;;
13204;SDS011;6667;52.634;9.226;2024-03-02T09:19:59;15.00;;;9.33;;
13204;SDS011;6667;52.634;9.226;2024-03-02T09:22:25;15.00;;;8.80;;
13204;SDS011;6667;52.634;9.226;2024-03-02T09:24:52;15.33;;;8.97;;
13204;SDS011;6667;52.634;9.226;2024-03-02T09:27:18;15.10;;;9.10;;
13204;SDS011;6667;52.634;9.226;2024-03-02T09:29:46;13.77;;;8.57;;
13204;SDS011;6667;52.634;9.226;2024-03-02T09:32:13;13.87;;;8.60;;
13204;SDS011;6667;52.634;9.226;2024-03-02T09:34:40;14.40;;;9.30;;
13204;SDS011;6667;52.634;9.226;2024-03-02T09:37:08;13.90;;;8.13;;
13204;SDS011;6667;52.634;9.226;2024-03-02T09:39:35;14.87;;;7.97;;
13204;SDS011;6667;52.634;9.226;2024-03-02T09:42:01;15.73;;;8.67;;
13204;SDS011;6667;52.634;9.226;2024-03-02T09:44:30;13.20;;;7.63;;
13204;SDS011;6667;52.634;9.226;2024-03-02T09:46:58;12.53;;;8.10;;
13204;SDS011;6667;52.634;9.226;2024-03-02T09:49:25;12.97;;;7.93;;
13204;SDS011;6667;52.634;9.226;2024-03-02T09:51:51;11.53;;;7.90;;
13204;SDS011;6667;52.634;9.226;2024-03-02T09:54:18;14.03;;;8.30;;
13204;SDS011;6667;52.634;9.226;2024-03-02T09:56:46;11.40;;;7.27;;
13204;SDS011;6667;52.634;9.226;2024-03-02T09:59:12;13.63;;;8.67;;
13204;SDS011;6667;52.634;9.226;2024-03-02T10:01:54;13.07;;;7.23;;
13204;SDS011;6667;52.634;9.226;2024-03-02T10:04:24;9.17;;;7.30;;
13204;SDS011;6667;52.634;9.226;2024-03-02T10:06:55;11.30;;;7.53;;
13204;SDS011;6667;52.634;9.226;2024-03-02T10:09:36;9.30;;;7.53;;
13204;SDS011;6667;52.634;9.226;2024-03-02T10:12:03;10.03;;;6.77;;
13204;SDS011;6667;52.634;9.226;2024-03-02T10:14:31;8.90;;;6.47;;
13204;SDS011;6667;52.634;9.226;2024-03-02T10:17:01;8.37;;;6.07;;
13204;SDS011;6667;52.634;9.226;2024-03-02T10:19:30;10.03;;;6.83;;
13204;SDS011;6667;52.634;9.226;2024-03-02T10:21:59;8.47;;;6.00;;
13204;SDS011;6667;52.634;9.226;2024-03-02T10:24:28;8.20;;;6.20;;
13204;SDS011;6667;52.634;9.226;2024-03-02T10:27:01;10.50;;;6.47;;
13204;SDS011;6667;52.634;9.226;2024-03-02T10:29:29;9.30;;;6.23;;
13204;SDS011;6667;52.634;9.226;2024-03-02T10:31:56;8.77;;;6.03;;
13204;SDS011;6667;52.634;9.226;2024-03-02T10:34:24;8.27;;;5.77;;
13204;SDS011;6667;52.634;9.226;2024-03-02T10:36:52;8.23;;;5.87;;
13204;SDS011;6667;52.634;9.226;2024-03-02T10:39:20;8.67;;;6.17;;
13204;SDS011;6667;52.634;9.226;2024-03-02T10:41:47;9.07;;;6.40;;
13204;SDS011;6667;52.634;9.226;2024-03-02T10:44:15;9.47;;;5.83;;
13204;SDS011;6667;52.634;9.226;2024-03-02T10:46:42;9.07;;;6.07;;
13204;SDS011;6667;52.634;9.226;2024-03-02T10:49:11;7.57;;;5.73;;
13204;SDS011;6667;52.634;9.226;2024-03-02T10:51:37;10.17;;;6.47;;
13204;SDS011;6667;52.634;9.226;2024-03-02T10:54:06;9.57;;;6.37;;
13204;SDS011;6667;52.634;9.226;2024-03-02T10:56:33;8.77;;;6.00;;
13204;SDS011;6667;52.634;9.226;2024-03-02T10:59:16;9.87;;;6.50;;
13204;SDS011;6667;52.634;9.226;2024-03-02T11:01:48;8.40;;;5.70;;
13204;SDS011;6667;52.634;9.226;2024-03-02T11:04:16;10.07;;;6.93;;
13204;SDS011;6667;52.634;9.226;2024-03-02T11:06:46;8.40;;;5.70;;
13204;SDS011;6667;52.634;9.226;2024-03-02T11:09:16;8.43;;;5.63;;
13204;SDS011;6667;52.634;9.226;2024-03-02T11:11:48;8.97;;;5.10;;
13204;SDS011;6667;52.634;9.226;2024-03-02T11:14:21;7.93;;;5.63;;
13204;SDS011;6667;52.634;9.226;2024-03-02T11:16:51;7.60;;;5.83;;
13204;SDS011;6667;52.634;9.226;2024-03-02T11:19:19;9.87;;;5.93;;
13204;SDS011;6667;52.634;9.226;2024-03-02T11:21:45;9.60;;;5.53;;
13204;SDS011;6667;52.634;9.226;2024-03-02T11:24:29;7.70;;;5.80;;
13204;SDS011;6667;52.634;9.226;2024-03-02T11:26:58;7.83;;;5.37;;
13204;SDS011;6667;52.634;9.226;2024-03-02T11:32:21;7.87;;;5.30;;
13204;SDS011;6667;52.634;9.226;2024-03-02T11:34:49;9.48;;;5.60;;
13204;SDS011;6667;52.634;9.226;2024-03-02T11:37:16;8.55;;;5.22;;
13204;SDS011;6667;52.634;9.226;2024-03-02T11:39:45;6.82;;;4.90;;
13204;SDS011;6667;52.634;9.226;2024-03-02T11:42:12;6.93;;;5.20;;
13204;SDS011;6667;52.634;9.226;2024-03-02T11:44:41;9.27;;;5.95;;
13204;SDS011;6667;52.634;9.226;2024-03-02T11:47:10;6.53;;;4.82;;
13204;SDS011;6667;52.634;9.226;2024-03-02T11:49:40;8.02;;;5.63;;
13204;SDS011;6667;52.634;9.226;2024-03-02T11:52:08;5.82;;;4.38;;
13204;SDS011;6667;52.634;9.226;2024-03-02T11:54:36;8.10;;;5.10;;
13204;SDS011;6667;52.634;9.226;2024-03-02T11:57:06;6.35;;;4.57;;
13204;SDS011;6667;52.634;9.226;2024-03-02T11:59:33;8.27;;;5.30;;
13204;SDS011;6667;52.634;9.226;2024-03-02T12:02:00;6.35;;;4.55;;
13204;SDS011;6667;52.634;9.226;2024-03-02T12:04:27;7.07;;;4.70;;
13204;SDS011;6667;52.634;9.226;2024-03-02T12:06:56;6.20;;;4.60;;
13204;SDS011;6667;52.634;9.226;2024-03-02T12:09:28;7.13;;;5.00;;
13204;SDS011;6667;52.634;9.226;2024-03-02T12:12:01;6.15;;;4.63;;
13204;SDS011;6667;52.634;9.226;2024-03-02T12:14:30;6.82;;;4.45;;
13204;SDS011;6667;52.634;9.226;2024-03-02T12:16:57;6.35;;;4.72;;
13204;SDS011;6667;52.634;9.226;2024-03-02T12:19:24;5.68;;;4.55;;
13204;SDS011;6667;52.634;9.226;2024-03-02T12:21:51;5.78;;;4.50;;
13204;SDS011;6667;52.634;9.226;2024-03-02T12:24:18;5.90;;;4.43;;
13204;SDS011;6667;52.634;9.226;2024-03-02T12:26:45;8.80;;;4.93;;
13204;SDS011;6667;52.634;9.226;2024-03-02T12:29:13;6.43;;;4.35;;
13204;SDS011;6667;52.634;9.226;2024-03-02T12:31:41;5.60;;;4.28;;
13204;SDS011;6667;52.634;9.226;2024-03-02T12:34:08;4.55;;;3.50;;
13204;SDS011;6667;52.634;9.226;2024-03-02T12:36:36;4.47;;;3.67;;
13204;SDS011;6667;52.634;9.226;2024-03-02T12:39:04;5.28;;;3.80;;
13204;SDS011;6667;52.634;9.226;2024-03-02T12:41:30;5.95;;;4.13;;
13204;SDS011;6667;52.634;9.226;2024-03-02T12:43:57;3.88;;;3.42;;
13204;SDS011;6667;52.634;9.226;2024-03-02T12:46:24;6.03;;;3.33;;
13204;SDS011;6667;52.634;9.226;2024-03-02T12:48:52;7.35;;;4.05;;
13204;SDS011;6667;52.634;9.226;2024-03-02T12:51:19;4.80;;;3.67;;
13204;SDS011;6667;52.634;9.226;2024-03-02T12:53:52;5.38;;;3.72;;
13204;SDS011;6667;52.634;9.226;2024-03-02T12:56:19;6.05;;;3.45;;
13204;SDS011;6667;52.634;9.226;2024-03-02T12:58:46;4.68;;;3.35;;
13204;SDS011;6667;52.634;9.226;2024-03-02T13:01:14;5.47;;;3.70;;
13204;SDS011;6667;52.634;9.226;2024-03-02T13:03:44;3.70;;;3.22;;
13204;SDS011;6667;52.634;9.226;2024-03-02T13:06:11;4.45;;;3.00;;
13204;SDS011;6667;52.634;9.226;2024-03-02T13:08:38;3.83;;;2.80;;
13204;SDS011;6667;52.634;9.226;2024-03-02T13:11:06;4.60;;;2.92;;
13204;SDS011;6667;52.634;9.226;2024-03-02T13:13:32;4.53;;;3.35;;
13204;SDS011;6667;52.634;9.226;2024-03-02T13:16:00;7.13;;;3.47;;
13204;SDS011;6667;52.634;9.226;2024-03-02T13:18:28;3.47;;;2.85;;
13204;SDS011;6667;52.634;9.226;2024-03-02T13:20:56;5.38;;;2.95;;
13204;SDS011;6667;52.634;9.226;2024-03-02T13:23:24;3.10;;;2.78;;
13204;SDS011;6667;52.634;9.226;2024-03-02T13:25:50;3.80;;;2.97;;
13204;SDS011;6667;52.634;9.226;2024-03-02T13:28:17;4.75;;;3.00;;
13204;SDS011;6667;52.634;9.226;2024-03-02T13:30:44;2.95;;;2.30;;
13204;SDS011;6667;52.634;9.226;2024-03-02T13:33:11;4.05;;;2.65;;
13204;SDS011;6667;52.634;9.226;2024-03-02T13:35:37;3.65;;;2.83;;
13204;SDS011;6667;52.634;9.226;2024-03-02T13:38:04;3.75;;;2.92;;
13204;SDS011;6667;52.634;9.226;2024-03-02T13:40:32;3.80;;;2.97;;
13204;SDS011;6667;52.634;9.226;2024-03-02T13:43:00;3.70;;;2.78;;
13204;SDS011;6667;52.634;9.226;2024-03-02T13:45:27;4.53;;;2.80;;
13204;SDS011;6667;52.634;9.226;2024-03-02T13:47:54;3.10;;;2.63;;
13204;SDS011;6667;52.634;9.226;2024-03-02T13:50:20;4.50;;;2.78;;
13204;SDS011;6667;52.634;9.226;2024-03-02T13:52:47;3.42;;;2.80;;
13204;SDS011;6667;52.634;9.226;2024-03-02T13:55:14;3.20;;;2.80;;
13204;SDS011;6667;52.634;9.226;2024-03-02T13:57:42;4.20;;;2.72;;
13204;SDS011;6667;52.634;9.226;2024-03-02T14:00:09;4.43;;;3.47;;
13204;SDS011;6667;52.634;9.226;2024-03-02T14:02:37;6.00;;;3.65;;
13204;SDS011;6667;52.634;9.226;2024-03-02T14:05:04;5.28;;;3.83;;
13204;SDS011;6667;52.634;9.226;2024-03-02T14:07:32;5.10;;;3.53;;
13204;SDS011;6667;52.634;9.226;2024-03-02T14:09:59;5.07;;;3.60;;
13204;SDS011;6667;52.634;9.226;2024-03-02T14:12:25;5.85;;;3.42;;
13204;SDS011;6667;52.634;9.226;2024-03-02T14:14:53;5.35;;;3.90;;
13204;SDS011;6667;52.634;9.226;2024-03-02T14:17:23;4.88;;;3.45;;
13204;SDS011;6667;52.634;9.226;2024-03-02T14:19:49;5.25;;;3.80;;
13204;SDS011;6667;52.634;9.226;2024-03-02T14:22:17;3.65;;;3.25;;
13204;SDS011;6667;52.634;9.226;2024-03-02T14:24:43;5.07;;;3.80;;
13204;SDS011;6667;52.634;9.226;2024-03-02T14:27:10;4.57;;;3.53;;
13204;SDS011;6667;52.634;9.226;2024-03-02T14:29:38;5.03;;;3.90;;
13204;SDS011;6667;52.634;9.226;2024-03-02T14:32:07;5.35;;;3.72;;
13204;SDS011;6667;52.634;9.226;2024-03-02T14:34:33;5.95;;;4.13;;
13204;SDS011;6667;52.634;9.226;2024-03-02T14:37:00;5.75;;;3.88;;
13204;SDS011;6667;52.634;9.226;2024-03-02T14:39:27;4.93;;;3.70;;
13204;SDS011;6667;52.634;9.226;2024-03-02T14:41:54;6.47;;;3.50;;
13204;SDS011;6667;52.634;9.226;2024-03-02T14:44:21;6.65;;;4.55;;
13204;SDS011;6667;52.634;9.226;2024-03-02T14:46:48;7.55;;;4.32;;
13204;SDS011;6667;52.634;9.226;2024-03-02T14:49:16;4.75;;;4.03;;
13204;SDS011;6667;52.634;9.226;2024-03-02T14:51:43;6.28;;;3.95;;
13204;SDS011;6667;52.634;9.226;2024-03-02T14:54:10;5.78;;;3.95;;
13204;SDS011;6667;52.634;9.226;2024-03-02T14:56:36;5.22;;;3.85;;